Lanoka Harbor, New Jersey
Current Conditions -  °F | °C
As of 4:35 PM on Monday 24 Nov 2014 (Local Time) from KMJX Reporting Station
Clear Clear  
Wind Chill: 64°   Ceiling: Unl
Heat Index: 64°   Visibility: 10mi
Dew Point: 55°   Wind: 9mph
Humidity: 73%   Direction: 200°SSW
Pressure: 29.67"   Gusts: 21mph
Location:  39.87°N, 74.17°W
Report Text: KMJX 242135Z AUTO 20008G18KT 10SM CLR 18/13 A2967 RMK AO1
Loading
Personal Weather Stations






























Interactive Weather Map New forecast layout! Learn more

10-Day Weather Forecast

Advertisements
Track Severe Weather on mobile